Time;durP1;ratioP1;P1;durP2;ratioP2;P2;SDS_P1;SDS_P2;PMS_P1;PMS_P2;Temp;Humidity;BMP_temperature;BMP_pressure;BME280_temperature;BME280_humidity;BME280_pressure;Samples;Min_cycle;Max_cycle;Signal;HPM_P1;HPM_P2
2022/12/10 00:01:49;;;;;;;24.83;15.50;;;4.80;92.90;;;5.31;61.19;97491.34;4949226;28;123121;-77
2022/12/10 00:04:20;;;;;;;25.17;14.67;;;4.80;92.80;;;5.32;61.37;97493.00;4949316;28;123761;-77
2022/12/10 00:06:47;;;;;;;24.60;14.10;;;4.80;92.90;;;5.35;60.99;97491.53;4950626;28;118835;-75
2022/12/10 00:09:16;;;;;;;21.67;13.07;;;4.80;92.80;;;5.36;60.72;97490.44;4935126;28;118267;-76
2022/12/10 00:11:43;;;;;;;24.43;15.47;;;4.90;92.90;;;5.35;61.15;97483.31;4937806;28;123816;-75
2022/12/10 00:14:12;;;;;;;25.77;15.20;;;4.80;92.80;;;5.35;60.34;97491.53;4967984;28;123536;-76
2022/12/10 00:16:39;;;;;;;27.20;15.67;;;4.80;92.80;;;5.32;60.45;97491.06;4965851;28;119173;-76
2022/12/10 00:19:06;;;;;;;21.77;14.10;;;4.80;92.70;;;5.30;61.12;97498.75;4966531;28;118518;-76
2022/12/10 00:21:35;;;;;;;21.73;11.63;;;4.80;92.80;;;5.33;61.00;97497.34;4966257;28;124109;-76
2022/12/10 00:24:03;;;;;;;22.67;13.73;;;4.80;92.80;;;5.36;61.17;97501.38;4947783;28;123913;-76
2022/12/10 00:26:35;;;;;;;19.50;12.03;;;4.90;92.80;;;5.39;60.32;97501.56;4950122;28;119132;-76
2022/12/10 00:29:04;;;;;;;27.03;14.40;;;4.90;92.80;;;5.39;60.97;97504.28;4979467;28;119071;-76
2022/12/10 00:31:34;;;;;;;24.67;13.07;;;4.90;92.70;;;5.39;60.37;97496.09;4949380;28;123017;-76
2022/12/10 00:34:05;;;;;;;26.60;14.50;;;5.00;92.70;;;5.38;60.54;97489.00;4962049;28;121304;-76
2022/12/10 00:36:45;;;;;;;20.83;13.50;;;4.90;92.60;;;5.39;60.79;97487.06;4962246;28;120297;-76
2022/12/10 00:39:20;;;;;;;22.57;13.33;;;4.90;92.60;;;5.36;60.81;97490.44;4942295;28;119251;-76
2022/12/10 00:41:47;;;;;;;26.97;15.50;;;4.80;92.50;;;5.28;60.70;97490.03;4956702;28;122731;-76
2022/12/10 00:44:15;;;;;;;22.73;14.33;;;4.80;92.50;;;5.24;60.48;97488.25;4975136;28;124029;-76
2022/12/10 00:46:42;;;;;;;24.50;14.33;;;4.80;92.50;;;5.22;60.87;97488.56;4960379;28;119102;-76
2022/12/10 00:49:09;;;;;;;23.03;13.30;;;4.70;92.50;;;5.18;60.34;97490.28;4965681;28;119576;-76
2022/12/10 00:51:37;;;;;;;25.80;14.50;;;4.70;92.40;;;5.15;60.28;97496.38;4958575;28;123846;-76
2022/12/10 00:54:04;;;;;;;21.20;13.80;;;4.70;92.40;;;5.11;60.73;97489.91;4985489;28;123675;-76
2022/12/10 00:56:32;;;;;;;25.30;15.17;;;4.60;92.40;;;5.08;60.06;97496.00;4954815;28;119306;-76
2022/12/10 00:59:00;;;;;;;23.43;13.20;;;4.60;92.40;;;5.07;60.81;97491.63;4960653;28;119252;-76
2022/12/10 01:01:35;;;;;;;19.70;13.30;;;4.60;92.50;;;5.08;60.69;97502.28;4975341;28;124022;-76
2022/12/10 01:04:07;;;;;;;20.70;12.80;;;4.60;92.50;;;5.10;60.52;97499.22;4953369;28;123588;-76
2022/12/10 01:06:40;;;;;;;24.53;14.00;;;4.60;92.50;;;5.11;61.02;97500.88;4956819;28;120032;-76
2022/12/10 01:09:10;;;;;;;22.73;13.80;;;4.60;92.50;;;5.14;60.38;97504.91;4940685;28;118077;-76
2022/12/10 01:11:39;;;;;;;27.60;16.70;;;4.60;92.50;;;5.15;60.67;97512.78;4960047;28;124447;-76
2022/12/10 01:14:12;;;;;;;21.17;12.93;;;4.70;92.50;;;5.18;61.10;97516.84;4977867;28;124158;-76
2022/12/10 01:16:38;;;;;;;22.37;13.13;;;4.70;92.50;;;5.19;60.55;97524.75;4953989;28;119372;-76
2022/12/10 01:19:05;;;;;;;19.60;13.17;;;4.70;92.50;;;5.22;60.73;97524.16;4981127;28;118954;-76
2022/12/10 01:21:32;;;;;;;22.40;13.30;;;4.70;92.50;;;5.25;60.57;97518.03;4963612;28;124381;-76
2022/12/10 01:23:59;;;;;;;27.23;15.50;;;4.80;92.50;;;5.29;60.26;97524.53;4978970;28;123938;-76
2022/12/10 01:26:30;;;;;;;27.10;15.67;;;4.80;92.50;;;5.29;60.58;97523.69;4962288;28;118794;-76
2022/12/10 01:28:57;;;;;;;22.37;13.93;;;4.80;92.40;;;5.27;60.16;97529.50;4987423;28;120153;-76
2022/12/10 01:31:31;;;;;;;22.67;13.70;;;4.70;92.40;;;5.25;60.50;97536.41;4962749;28;124397;-76
2022/12/10 01:33:58;;;;;;;20.70;12.37;;;4.70;92.40;;;5.23;60.13;97544.91;4967415;28;123719;-76
2022/12/10 01:36:30;;;;;;;24.43;15.13;;;5.10;92.50;;;5.23;60.58;97541.38;4972267;28;118399;-76
2022/12/10 01:39:00;;;;;;;23.10;14.30;;;4.70;92.40;;;5.22;60.64;97543.31;4970288;28;119201;-76
2022/12/10 01:41:32;;;;;;;21.40;12.20;;;4.70;92.40;;;5.21;60.29;97544.44;4969699;28;123992;-76
2022/12/10 01:44:08;;;;;;;20.87;12.10;;;4.70;92.40;;;5.24;60.50;97557.50;4943283;28;124192;-76
2022/12/10 01:47:01;;;;;;;27.37;15.83;;;5.20;92.60;;;5.26;60.24;97557.19;4980504;28;119162;-76
2022/12/10 01:49:39;;;;;;;25.70;13.80;;;5.00;92.50;;;5.23;60.47;97558.59;4976225;28;118738;-76
2022/12/10 01:52:10;;;;;;;27.57;15.40;;;4.80;92.40;;;5.21;60.35;97555.41;4966070;28;123225;-76
2022/12/10 01:54:44;;;;;;;25.97;14.17;;;4.70;92.30;;;5.18;60.22;97563.41;4966616;28;123945;-74
2022/12/10 01:57:17;;;;;;;28.47;14.80;;;4.70;92.30;;;5.12;60.50;97561.91;4985832;28;119729;-75
2022/12/10 01:59:47;;;;;;;25.07;15.10;;;4.60;92.30;;;5.10;59.80;97556.72;4965452;28;118871;-75
2022/12/10 02:02:51;;;;;;;23.20;14.60;;;4.60;92.30;;;5.06;60.12;97559.25;4962148;28;124041;-76
2022/12/10 02:05:42;;;;;;;21.80;14.10;;;4.60;92.30;;;5.02;60.15;97563.75;4964076;28;123951;-76
2022/12/10 02:08:23;;;;;;;24.00;14.40;;;4.50;92.40;;;5.00;60.61;97559.69;4963944;28;119275;-76
2022/12/10 02:11:13;;;;;;;21.90;13.10;;;4.50;92.40;;;4.97;60.65;97555.66;4974496;28;118787;-76
2022/12/10 02:13:46;;;;;;;25.70;14.73;;;4.40;92.30;;;4.97;60.17;97565.75;4956036;28;123222;-76
2022/12/10 02:16:24;;;;;;;21.67;13.60;;;4.50;92.40;;;4.98;60.28;97559.19;4975987;28;122669;-76
2022/12/10 02:19:21;;;;;;;19.47;11.90;;;4.50;92.40;;;5.02;60.34;97562.91;4954304;28;120303;-77
2022/12/10 02:21:51;;;;;;;23.03;12.90;;;4.50;92.40;;;5.03;60.16;97553.59;4964106;28;119703;-76
2022/12/10 02:24:28;;;;;;;18.67;11.67;;;4.50;92.40;;;5.08;60.04;97550.75;4954747;28;123962;-76
2022/12/10 02:27:48;;;;;;;27.47;13.97;;;4.70;92.40;;;5.09;60.33;97546.88;4938584;28;123540;-76
2022/12/10 02:30:15;;;;;;;20.00;12.40;;;4.60;92.30;;;5.06;60.56;97544.78;4966224;28;119282;-76
2022/12/10 02:32:46;;;;;;;22.73;12.90;;;4.70;92.40;;;5.06;60.32;97550.25;4978371;28;119551;-76
2022/12/10 02:35:24;;;;;;;20.03;12.83;;;5.40;92.70;;;5.09;60.75;97547.69;4958927;28;123630;-76
2022/12/10 02:38:06;;;;;;;20.40;12.90;;;5.50;92.70;;;5.12;60.19;97529.84;4964061;28;124174;-76
2022/12/10 02:40:36;;;;;;;22.73;13.83;;;4.60;92.30;;;5.12;60.22;97540.00;4937375;28;118222;-76
2022/12/10 02:43:04;;;;;;;20.43;11.40;;;4.60;92.30;;;5.14;60.01;97535.03;4954293;28;119294;-76
2022/12/10 02:45:32;;;;;;;20.97;12.50;;;5.00;92.50;;;5.16;60.14;97527.28;4958044;28;123186;-77
2022/12/10 02:48:01;;;;;;;18.00;11.10;;;4.70;92.30;;;5.16;60.36;97522.66;4952428;28;122828;-76
2022/12/10 02:50:29;;;;;;;23.40;12.33;;;4.70;92.30;;;5.15;59.80;97523.75;4962247;28;119056;-76
2022/12/10 02:52:56;;;;;;;20.23;12.50;;;4.70;92.20;;;5.12;59.94;97518.09;4955914;28;119131;-76
2022/12/10 02:55:22;;;;;;;20.13;11.83;;;4.60;92.20;;;5.09;60.38;97517.59;4970818;28;124550;-77
2022/12/10 02:58:15;;;;;;;24.47;13.00;;;4.60;92.20;;;5.13;60.84;97509.59;4965537;28;124775;-76
2022/12/10 03:01:07;;;;;;;16.87;10.53;;;4.60;92.20;;;5.14;59.78;97499.44;4964566;28;118678;-76
2022/12/10 03:03:57;;;;;;;21.13;11.53;;;4.70;92.20;;;5.15;60.32;97501.84;4968638;28;119350;-76
2022/12/10 03:06:41;;;;;;;21.43;13.43;;;4.70;92.20;;;5.15;59.93;97517.47;4945236;28;123871;-76
2022/12/10 03:09:19;;;;;;;23.40;13.80;;;4.60;92.10;;;5.12;60.38;97518.09;4970884;28;123593;-75
2022/12/10 03:11:49;;;;;;;23.93;12.60;;;4.60;92.10;;;5.08;59.59;97518.72;4960370;28;120119;-75
2022/12/10 03:14:24;;;;;;;20.03;12.07;;;4.60;92.10;;;5.11;59.75;97506.34;4966760;28;119932;-75
2022/12/10 03:16:58;;;;;;;20.70;12.57;;;4.60;92.10;;;5.12;59.82;97513.41;4948480;28;123928;-75
2022/12/10 03:19:39;;;;;;;21.83;13.37;;;5.40;92.40;;;5.13;59.56;97512.31;4983991;28;123878;-76
2022/12/10 03:22:07;;;;;;;26.67;13.90;;;4.60;92.10;;;5.12;59.75;97521.63;4983044;28;118919;-75
2022/12/10 03:24:36;;;;;;;21.10;12.30;;;4.60;92.10;;;5.13;59.98;97523.28;4974169;28;118933;-75
2022/12/10 03:27:05;;;;;;;21.30;12.57;;;4.70;92.20;;;5.16;59.87;97513.59;4956350;28;124645;-75
2022/12/10 03:29:38;;;;;;;24.13;13.57;;;4.70;92.10;;;5.17;60.69;97510.56;4961158;28;124018;-75
2022/12/10 03:32:05;;;;;;;19.87;12.07;;;4.70;92.10;;;5.17;59.74;97498.81;4960179;28;118593;-76
2022/12/10 03:34:33;;;;;;;21.00;12.23;;;3.10;91.50;;;5.18;60.05;97490.28;4967698;28;119214;-76
2022/12/10 03:37:01;;;;;;;18.73;12.57;;;4.70;92.10;;;5.17;59.66;97494.16;4968057;28;124101;-75
2022/12/10 03:39:28;;;;;;;26.80;14.50;;;4.70;92.10;;;5.15;59.56;97501.84;4988425;28;123020;-76
2022/12/10 03:41:54;;;;;;;26.73;14.80;;;4.60;92.00;;;5.11;59.77;97492.66;4966837;28;119187;-76
2022/12/10 03:44:35;;;;;;;26.00;14.80;;;4.60;92.00;;;5.11;59.77;97497.31;4961179;28;118878;-76
2022/12/10 03:47:07;;;;;;;20.53;12.10;;;4.60;92.00;;;5.09;59.75;97494.88;4968069;28;123960;-76
2022/12/10 03:49:35;;;;;;;23.30;13.20;;;4.60;92.10;;;5.06;60.11;97512.72;4971897;28;122657;-75
2022/12/10 03:52:01;;;;;;;18.87;11.43;;;4.70;92.10;;;5.06;59.88;97520.13;4970257;28;118974;-75
2022/12/10 03:54:28;;;;;;;19.60;12.33;;;4.60;92.10;;;5.06;60.31;97520.94;4958031;28;117990;-75
2022/12/10 03:56:54;;;;;;;20.23;11.90;;;4.60;92.10;;;5.06;59.67;97514.66;4947407;28;122931;-75
2022/12/10 03:59:21;;;;;;;20.83;12.57;;;4.90;92.20;;;5.06;59.61;97525.59;4975865;28;124114;-75
2022/12/10 04:01:48;;;;;;;17.70;12.03;;;4.60;92.10;;;5.09;60.45;97525.00;4978418;28;120385;-74
2022/12/10 04:04:14;;;;;;;20.23;11.57;;;4.60;92.10;;;5.12;60.24;97538.06;4956600;28;119921;-75
2022/12/10 04:06:42;;;;;;;20.90;12.07;;;4.70;92.40;;;5.13;60.27;97531.47;4952493;28;123381;-76
2022/12/10 04:09:15;;;;;;;20.87;12.23;;;4.70;92.50;;;5.16;59.47;97535.50;4962390;28;124180;-76
2022/12/10 04:11:42;;;;;;;24.17;13.50;;;4.70;92.10;;;5.14;59.97;97538.56;4948617;28;118951;-76
2022/12/10 04:16:55;;;;;;;21.23;12.63;;;4.60;92.00;;;5.07;59.82;97544.44;4961231;28;124515;-76
2022/12/10 04:19:22;;;;;;;22.50;12.73;;;4.60;92.00;;;5.07;59.70;97543.66;4971168;28;123925;-76
2022/12/10 04:27:31;;;;;;;24.30;13.07;;;4.60;92.00;;;5.00;60.40;97548.75;4956941;28;124534;-75
2022/12/10 04:29:59;;;;;;;18.57;11.77;;;4.50;92.00;;;4.94;60.43;97563.63;4934198;28;123259;-76
2022/12/10 04:32:28;;;;;;;23.10;13.47;;;4.50;92.10;;;4.92;59.99;97553.00;4947110;28;119368;-76
2022/12/10 04:34:55;;;;;;;17.20;11.40;;;4.50;92.10;;;4.90;59.91;97557.16;4947518;28;118926;-76
2022/12/10 04:37:23;;;;;;;22.10;13.00;;;4.50;92.10;;;4.87;59.96;97559.41;4965094;28;123567;-76
2022/12/10 04:39:51;;;;;;;19.73;12.87;;;4.50;92.10;;;4.87;60.61;97562.13;4964575;28;124217;-76
2022/12/10 04:42:19;;;;;;;20.10;12.00;;;4.40;92.10;;;4.86;60.26;97566.00;4965718;28;119198;-75
2022/12/10 04:44:45;;;;;;;18.53;11.50;;;4.40;92.10;;;4.84;60.23;97562.75;4943274;28;119460;-76
2022/12/10 04:47:13;;;;;;;22.90;14.17;;;4.40;92.10;;;4.81;60.54;97563.38;4950819;28;123673;-76
2022/12/10 04:49:40;;;;;;;25.40;14.50;;;4.40;92.20;;;4.77;60.85;97564.28;4967585;28;123659;-76
2022/12/10 04:52:08;;;;;;;21.83;12.77;;;4.30;92.10;;;4.74;60.30;97567.63;4952108;28;120324;-76
2022/12/10 04:54:34;;;;;;;20.43;11.27;;;4.30;92.20;;;4.73;60.08;97566.81;4968627;28;119887;-75
2022/12/10 04:57:01;;;;;;;21.33;13.10;;;4.30;92.20;;;4.72;60.07;97559.69;4953451;28;122201;-76
2022/12/10 04:59:27;;;;;;;23.73;13.03;;;4.30;92.30;;;4.72;60.19;97573.38;4967630;28;124075;-76
2022/12/10 05:02:00;;;;;;;24.03;14.53;;;4.80;92.50;;;4.72;61.30;97570.66;4953508;28;120704;-75
2022/12/10 05:04:26;;;;;;;26.23;15.50;;;4.30;92.40;;;4.65;60.87;97564.78;4950578;28;119672;-76
2022/12/10 05:06:54;;;;;;;24.20;14.00;;;5.30;92.80;;;4.64;60.74;97557.69;4920120;28;123878;-76
2022/12/10 05:09:20;;;;;;;22.70;13.97;;;4.10;92.40;;;4.58;61.35;97558.91;4967787;28;124412;-76
2022/12/10 05:11:47;;;;;;;22.43;13.47;;;4.30;92.50;;;4.54;60.82;97563.34;4967890;28;119694;-76
2022/12/10 05:14:15;;;;;;;25.17;15.03;;;4.10;92.40;;;4.52;61.02;97569.13;4949480;28;119022;-76
2022/12/10 05:16:42;;;;;;;22.97;13.07;;;4.00;92.40;;;4.51;61.57;97562.03;4944929;28;123964;-76
2022/12/10 05:19:10;;;;;;;24.67;15.13;;;4.00;92.50;;;4.52;61.09;97568.34;4956744;28;123822;-76
2022/12/10 05:24:23;;;;;;;25.40;15.30;;;4.10;92.60;;;4.55;60.80;97565.00;4972768;28;119595;-76
2022/12/10 05:26:51;;;;;;;23.80;14.80;;;4.10;92.60;;;4.54;61.41;97558.72;4973426;28;124657;-76
2022/12/10 05:29:18;;;;;;;19.17;11.93;;;4.10;92.60;;;4.57;61.22;97568.22;4980239;28;123730;-76
2022/12/10 05:31:45;;;;;;;24.97;12.30;;;4.10;92.60;;;4.57;61.33;97566.31;4964154;28;118957;-76
2022/12/10 05:34:12;;;;;;;20.53;13.50;;;4.10;92.90;;;4.54;61.73;97569.66;4964513;28;118929;-76
2022/12/10 05:36:39;;;;;;;25.00;13.90;;;4.10;92.60;;;4.52;61.02;97571.06;4980154;28;124434;-76
2022/12/10 05:39:06;;;;;;;20.93;11.97;;;4.10;92.60;;;4.51;61.76;97574.91;4959934;28;124454;-76
2022/12/10 05:41:37;;;;;;;20.23;12.60;;;4.10;92.60;;;4.53;61.40;97572.69;4977545;28;120154;-75
2022/12/10 05:44:04;;;;;;;25.13;13.20;;;4.10;92.70;;;4.52;61.11;97566.41;4956973;28;119233;-75
2022/12/10 05:46:33;;;;;;;20.77;13.23;;;4.00;92.60;;;4.53;61.14;97572.69;4947432;28;123142;-75
2022/12/10 05:49:02;;;;;;;19.13;12.97;;;4.10;92.70;;;4.53;61.84;97578.94;4987949;28;123600;-76
2022/12/10 05:51:32;;;;;;;23.73;15.47;;;4.10;92.70;;;4.55;60.92;97576.72;4969816;28;119476;-76
2022/12/10 05:54:01;;;;;;;25.50;14.20;;;4.30;92.80;;;4.54;61.09;97574.28;4980771;28;119004;-76
2022/12/10 05:56:28;;;;;;;28.03;14.87;;;4.10;92.70;;;4.53;61.72;97578.16;4950537;28;123985;-75
2022/12/10 05:59:00;;;;;;;26.37;14.97;;;4.10;92.80;;;4.50;61.50;97581.50;4945001;28;124294;-75
2022/12/10 06:01:31;;;;;;;22.53;13.87;;;4.00;92.80;;;4.46;61.89;97588.66;4976901;28;119357;-76
2022/12/10 06:04:00;;;;;;;27.80;14.97;;;3.90;92.90;;;4.44;61.88;97586.25;4970130;28;119241;-76
2022/12/10 06:06:33;;;;;;;32.23;14.93;;;3.90;92.90;;;4.47;61.58;97590.31;4975327;28;124062;-76
2022/12/10 06:08:59;;;;;;;19.27;13.30;;;4.00;92.90;;;4.45;61.82;97593.31;4979210;28;123728;-76
2022/12/10 06:11:27;;;;;;;23.20;13.03;;;3.90;92.90;;;4.46;62.09;97605.91;4976045;28;119437;-76
2022/12/10 06:13:57;;;;;;;21.70;13.93;;;4.00;92.90;;;4.50;62.16;97606.09;4941050;28;119174;-77
2022/12/10 06:16:25;;;;;;;25.80;14.30;;;4.00;93.00;;;4.48;62.14;97611.06;4942189;28;123732;-77
2022/12/10 06:18:53;;;;;;;23.33;13.20;;;4.00;92.90;;;4.50;61.92;97606.09;4930698;28;123614;-76
2022/12/10 06:21:20;;;;;;;21.40;12.30;;;4.00;92.90;;;4.51;61.52;97615.91;4966565;28;119843;-76
2022/12/10 06:23:51;;;;;;;22.57;13.40;;;4.00;92.90;;;4.51;61.48;97613.19;4937993;28;117993;-76
2022/12/10 06:26:22;;;;;;;22.27;13.07;;;4.10;92.90;;;4.52;61.35;97609.34;4952277;28;124473;-75
2022/12/10 06:28:50;;;;;;;22.60;14.40;;;4.10;92.90;;;4.53;61.86;97616.44;4970500;28;123598;-77
2022/12/10 06:31:17;;;;;;;25.97;13.57;;;4.60;93.10;;;4.55;61.70;97614.22;4954674;28;118845;-76
2022/12/10 06:33:44;;;;;;;24.83;15.20;;;4.00;92.80;;;4.53;61.77;97617.25;4968307;28;120506;-76
2022/12/10 06:36:14;;;;;;;24.17;15.50;;;2.90;92.30;;;4.50;60.96;97622.53;4969634;28;124640;-76
2022/12/10 06:38:41;;;;;;;26.23;17.03;;;4.00;92.80;;;4.46;60.86;97616.00;4940572;28;123762;-76
2022/12/10 06:41:11;;;;;;;29.97;16.80;;;4.00;92.80;;;4.36;60.87;97623.31;4969219;28;119016;-76
2022/12/10 06:43:37;;;;;;;26.60;13.83;;;3.90;92.70;;;4.31;61.53;97634.31;4947138;28;120405;-77
2022/12/10 06:46:07;;;;;;;22.47;13.50;;;4.20;92.90;;;4.31;61.64;97634.31;4944714;28;123788;-79
2022/12/10 06:48:34;;;;;;;25.67;14.93;;;3.80;92.80;;;4.32;61.77;97633.22;4948241;28;123860;-77
2022/12/10 06:51:02;;;;;;;23.37;13.47;;;3.80;92.90;;;4.35;61.97;97640.84;4966907;28;119746;-77
2022/12/10 06:53:28;;;;;;;23.50;13.83;;;3.90;92.90;;;4.38;61.83;97645.69;4960112;28;118838;-76
2022/12/10 06:55:59;;;;;;;25.23;15.27;;;3.90;92.90;;;4.43;61.90;97644.78;4967805;28;124029;-77
2022/12/10 06:58:28;;;;;;;25.57;14.43;;;4.90;93.20;;;4.42;61.65;97638.50;4953033;28;121959;-77
2022/12/10 07:01:05;;;;;;;25.67;12.63;;;3.90;92.80;;;4.45;61.01;97647.22;4951488;28;118354;-76
2022/12/10 07:03:33;;;;;;;20.73;12.90;;;3.90;92.80;;;4.41;61.47;97641.56;4968256;28;119303;-74
2022/12/10 07:06:01;;;;;;;20.07;12.43;;;3.90;92.80;;;4.43;61.44;97642.88;4966338;28;123906;-76
2022/12/10 07:08:28;;;;;;;21.60;12.50;;;4.20;92.90;;;4.43;61.29;97640.13;4967507;28;123827;-77
2022/12/10 07:10:55;;;;;;;23.30;13.33;;;4.00;92.80;;;4.45;61.52;97648.03;4951784;28;119428;-79
2022/12/10 07:13:23;;;;;;;27.93;16.30;;;4.00;92.80;;;4.47;61.48;97639.53;4951117;28;118809;-75
2022/12/10 07:15:51;;;;;;;23.33;13.50;;;4.00;92.80;;;4.45;61.23;97648.03;4966553;28;123929;-75
2022/12/10 07:18:17;;;;;;;22.37;13.07;;;4.00;92.80;;;4.46;61.40;97644.19;4959087;28;125131;-77
2022/12/10 07:20:44;;;;;;;21.77;13.20;;;4.00;92.70;;;4.46;61.44;97646.09;4949181;28;119353;-76
2022/12/10 07:23:10;;;;;;;16.70;11.13;;;4.00;92.70;;;4.46;60.95;97648.84;4962715;28;119936;-77
2022/12/10 07:25:37;;;;;;;21.73;12.63;;;4.00;92.70;;;4.45;61.21;97653.50;4966305;28;124049;-77
2022/12/10 07:28:06;;;;;;;31.33;17.50;;;4.00;92.70;;;4.45;60.98;97655.44;4925518;28;124655;-77
2022/12/10 07:30:34;;;;;;;21.10;13.13;;;4.00;92.70;;;4.43;61.17;97655.72;4928986;28;119067;-76
2022/12/10 07:33:00;;;;;;;23.97;14.83;;;4.00;92.70;;;4.42;61.26;97660.38;4929835;28;119252;-78
2022/12/10 07:35:30;;;;;;;24.30;13.57;;;4.00;92.70;;;4.42;61.28;97654.91;4950936;28;124042;-76
2022/12/10 07:37:56;;;;;;;19.80;12.10;;;3.70;92.60;;;4.42;61.33;97660.38;4929113;28;122807;-76
2022/12/10 07:40:23;;;;;;;22.90;13.23;;;4.00;92.70;;;4.38;61.52;97667.56;4943572;28;119157;-76
2022/12/10 07:42:50;;;;;;;23.53;14.10;;;4.00;92.70;;;4.35;61.22;97676.38;4926697;28;118882;-78
2022/12/10 07:45:16;;;;;;;24.90;14.83;;;3.90;92.70;;;4.33;61.19;97680.53;4944652;28;124155;-77
2022/12/10 07:47:43;;;;;;;23.93;14.47;;;3.90;92.70;;;4.30;61.93;97681.09;4927678;28;124109;-78
2022/12/10 07:50:09;;;;;;;21.20;13.13;;;3.90;92.70;;;4.27;61.25;97677.06;4943308;28;119458;-78
2022/12/10 07:52:36;;;;;;;21.20;12.60;;;3.80;92.70;;;4.27;61.89;97684.44;4929563;28;119582;-76
2022/12/10 07:55:02;;;;;;;23.50;15.20;;;3.80;92.70;;;4.28;62.28;97675.94;4952944;28;124415;-77
2022/12/10 07:57:30;;;;;;;24.90;14.10;;;3.80;92.70;;;4.28;61.45;97681.41;4933918;28;122861;-77
2022/12/10 07:59:58;;;;;;;26.43;16.43;;;3.80;92.70;;;4.28;61.19;97681.41;4947777;28;119269;-77
2022/12/10 08:02:24;;;;;;;24.83;14.07;;;3.80;92.70;;;4.25;61.45;97681.22;4944892;28;119048;-78
2022/12/10 08:04:50;;;;;;;25.10;14.87;;;3.80;92.70;;;4.25;61.60;97682.00;4936528;28;123100;-76
2022/12/10 08:07:17;;;;;;;27.57;15.67;;;3.80;92.70;;;4.27;61.95;97684.44;4945126;28;122846;-78
2022/12/10 08:09:43;;;;;;;22.60;14.80;;;3.70;92.70;;;4.27;61.20;97685.25;4930313;28;119549;-76
2022/12/10 08:12:10;;;;;;;20.83;13.37;;;3.80;92.80;;;4.24;61.89;97696.78;4945244;28;120033;-76
2022/12/10 08:14:36;;;;;;;23.67;13.83;;;3.80;92.70;;;4.27;61.94;97689.91;4927522;28;123965;-77
2022/12/10 08:17:03;;;;;;;25.13;15.20;;;3.80;92.70;;;4.28;61.47;97697.00;4945448;28;123906;-77
2022/12/10 08:19:29;;;;;;;25.73;14.50;;;3.80;92.80;;;4.28;62.18;97697.81;4943933;28;119249;-75
2022/12/10 08:21:56;;;;;;;32.80;15.60;;;3.80;92.80;;;4.29;61.72;97699.44;4945553;28;119138;-77
2022/12/10 08:24:22;;;;;;;23.00;13.93;;;3.80;92.80;;;4.30;61.77;97694.75;4946969;28;123915;-77
2022/12/10 08:26:49;;;;;;;19.57;12.50;;;3.80;92.90;;;4.30;61.86;97695.59;4912661;28;124678;-77
2022/12/10 08:29:16;;;;;;;20.47;13.70;;;3.80;92.90;;;4.33;61.60;97697.72;4965904;28;119499;-77
2022/12/10 08:31:43;;;;;;;26.53;16.67;;;3.80;92.90;;;4.30;61.48;97698.34;4966241;28;118239;-77
2022/12/10 08:34:15;;;;;;;26.70;15.60;;;3.80;92.80;;;4.30;61.43;97700.22;4964190;28;124064;-76
2022/12/10 08:36:43;;;;;;;28.37;18.03;;;3.80;92.90;;;4.27;61.55;97696.19;4945328;28;123643;-77
2022/12/10 08:39:14;;;;;;;24.30;15.30;;;3.90;93.00;;;4.25;61.25;97698.41;4946626;28;118835;-76
2022/12/10 08:41:45;;;;;;;25.97;15.73;;;3.70;92.90;;;4.19;61.58;97694.97;4963524;28;118971;-76
2022/12/10 08:44:13;;;;;;;25.80;15.70;;;3.70;92.90;;;4.18;61.61;97697.97;4967826;28;123792;-76
2022/12/10 08:46:39;;;;;;;28.13;16.40;;;4.20;93.20;;;4.20;62.22;97696.56;4968671;28;123498;-76
2022/12/10 08:49:06;;;;;;;24.73;15.53;;;4.10;93.10;;;4.25;61.61;97703.06;4951830;28;119913;-77
2022/12/10 08:51:33;;;;;;;23.70;14.47;;;3.70;92.90;;;4.28;61.83;97699.75;4950472;28;118538;-77
2022/12/10 08:54:00;;;;;;;21.00;12.90;;;3.80;93.00;;;4.30;62.10;97709.28;4947376;28;125078;-76
2022/12/10 08:56:26;;;;;;;22.13;13.43;;;3.80;92.90;;;4.34;61.76;97714.94;4964392;28;123912;-80
2022/12/10 08:58:53;;;;;;;18.77;12.57;;;4.60;93.20;;;4.37;61.67;97720.63;4948653;28;119530;-79
2022/12/10 09:01:19;;;;;;;22.60;13.63;;;3.90;92.90;;;4.40;61.57;97717.28;4964776;28;120201;-76
2022/12/10 09:03:46;;;;;;;21.90;14.40;;;3.90;92.90;;;4.40;61.58;97722.75;4963546;28;123861;-77
2022/12/10 09:06:17;;;;;;;25.27;14.80;;;3.90;92.80;;;4.45;61.18;97726.53;4964879;28;123804;-75
2022/12/10 09:08:44;;;;;;;20.70;13.33;;;3.90;92.80;;;4.47;61.07;97722.38;4965566;28;118881;-76
2022/12/10 09:11:18;;;;;;;26.20;14.40;;;4.00;92.80;;;4.53;61.19;97731.31;4958403;28;119036;-75
2022/12/10 09:13:44;;;;;;;24.10;13.87;;;4.00;92.80;;;4.52;61.47;97729.69;4937350;28;123839;-76
2022/12/10 09:16:11;;;;;;;25.10;15.40;;;4.00;92.80;;;4.55;60.73;97734.56;4938250;28;123561;-76
2022/12/10 09:18:39;;;;;;;26.30;15.13;;;4.00;92.80;;;4.57;61.28;97735.09;4944632;28;118959;-76
2022/12/10 09:21:12;;;;;;;23.20;13.60;;;4.10;92.80;;;4.64;60.95;97743.69;4949354;28;119051;-76
2022/12/10 09:23:39;;;;;;;27.87;16.40;;;4.10;92.80;;;4.65;60.83;97743.41;4955183;28;124274;-76
2022/12/10 09:26:11;;;;;;;22.03;14.33;;;4.10;92.70;;;4.66;61.00;97741.47;4966080;28;124100;-76
2022/12/10 09:28:38;;;;;;;22.00;14.97;;;4.10;92.70;;;4.67;60.79;97748.56;4941632;28;119220;-76
2022/12/10 09:31:07;;;;;;;28.63;13.50;;;4.10;92.70;;;4.72;61.80;97755.88;4932407;28;120115;-75
2022/12/10 09:33:34;;;;;;;23.27;14.20;;;4.20;93.20;;;4.80;63.06;97761.47;4954194;28;124946;-73
2022/12/10 09:36:06;;;;;;;24.80;14.97;;;4.20;93.60;;;4.89;62.98;97753.41;4949136;28;123506;-74
2022/12/10 09:38:38;;;;;;;23.03;14.40;;;4.30;93.70;;;4.97;62.24;97752.72;4939371;28;119091;-77
2022/12/10 09:41:39;;;;;;;28.80;14.80;;;4.40;93.60;;;5.06;63.18;97756.38;4953050;28;119042;-76
2022/12/10 09:44:45;;;;;;;37.17;18.60;;;4.40;93.90;;;5.23;64.25;97750.28;4959104;28;124115;-76
2022/12/10 09:47:12;;;;;;;24.57;14.83;;;4.60;94.50;;;5.30;63.22;97749.91;4940186;28;124299;-75
2022/12/10 09:50:10;;;;;;;21.30;13.60;;;4.70;94.40;;;5.33;62.68;97749.28;4934827;28;119688;-76
2022/12/10 09:52:42;;;;;;;27.00;16.30;;;4.70;94.20;;;5.34;62.99;97755.56;4925977;28;120608;-75
2022/12/10 09:55:33;;;;;;;26.37;16.83;;;4.70;94.00;;;5.29;61.53;97749.09;4960985;28;124118;-77
2022/12/10 09:58:02;;;;;;;25.23;14.50;;;4.70;93.50;;;5.17;61.71;97746.03;4930894;28;124208;-76
2022/12/10 10:00:42;;;;;;;21.50;14.30;;;4.60;93.30;;;5.12;61.44;97754.34;4931894;28;98458;-77
2022/12/10 10:03:15;;;;;;;25.00;16.13;;;4.60;93.10;;;5.08;61.83;97759.63;4946364;28;118432;-77
2022/12/10 10:05:50;;;;;;;23.33;14.63;;;4.60;93.00;;;5.05;61.22;97748.44;4919719;28;123924;-76
2022/12/10 10:08:32;;;;;;;26.23;14.70;;;4.80;93.00;;;5.05;60.39;97753.91;4906586;28;122820;-76
2022/12/10 10:11:00;;;;;;;26.77;15.17;;;4.50;92.80;;;5.01;60.75;97752.91;4929892;28;119051;-75
2022/12/10 10:13:41;;;;;;;26.83;14.87;;;4.50;92.70;;;5.01;61.09;97748.25;4943373;28;119336;-76
2022/12/10 10:16:23;;;;;;;28.47;16.90;;;4.50;92.60;;;5.01;60.57;97750.19;4939050;28;126147;-77
2022/12/10 10:19:03;;;;;;;21.07;13.20;;;4.50;92.60;;;5.01;60.85;97752.91;4935567;28;124093;-76
2022/12/10 10:21:45;;;;;;;24.60;14.30;;;4.50;92.60;;;5.01;60.69;97750.97;4950352;28;119315;-76
2022/12/10 10:24:19;;;;;;;21.60;13.70;;;4.60;92.70;;;5.01;60.56;97745.50;4941234;28;119697;-75
2022/12/10 10:26:46;;;;;;;24.83;14.20;;;4.50;92.60;;;5.02;60.59;97747.16;4927243;28;123931;-76
2022/12/10 10:29:18;;;;;;;25.70;14.57;;;4.50;92.50;;;5.05;59.71;97748.44;4988767;28;123600;-78
2022/12/10 10:31:46;;;;;;;25.10;15.80;;;4.50;92.40;;;5.02;60.29;97738.94;4964058;28;119185;-79
2022/12/10 10:34:21;;;;;;;31.70;16.43;;;4.90;92.50;;;5.00;59.85;97748.56;4962496;28;119210;-78
2022/12/10 10:37:03;;;;;;;24.20;15.03;;;4.50;92.20;;;4.98;59.67;97748.03;4961087;28;122841;-77
2022/12/10 10:39:32;;;;;;;27.23;16.80;;;4.50;92.20;;;4.91;60.09;97751.16;4964652;28;123733;-79